sensor_id;sensor_type;location;lat;lon;timestamp;temperature;humidity
20594;DHT22;10455;48.732;10.266;2023-02-20T00:03:02;7.50;99.90
20594;DHT22;10455;48.732;10.266;2023-02-20T00:08:04;7.50;99.90
20594;DHT22;10455;48.732;10.266;2023-02-20T00:13:08;7.50;99.90
20594;DHT22;10455;48.732;10.266;2023-02-20T00:18:10;7.40;99.90
20594;DHT22;10455;48.732;10.266;2023-02-20T00:23:11;7.50;99.90
20594;DHT22;10455;48.732;10.266;2023-02-20T00:28:15;7.60;99.90
20594;DHT22;10455;48.732;10.266;2023-02-20T00:33:17;7.50;99.90
20594;DHT22;10455;48.732;10.266;2023-02-20T00:38:18;7.40;99.90
20594;DHT22;10455;48.732;10.266;2023-02-20T00:43:22;7.40;99.90
20594;DHT22;10455;48.732;10.266;2023-02-20T00:48:23;7.30;99.90
20594;DHT22;10455;48.732;10.266;2023-02-20T00:53:25;7.50;99.90
20594;DHT22;10455;48.732;10.266;2023-02-20T00:58:29;7.40;99.90
20594;DHT22;10455;48.732;10.266;2023-02-20T01:03:30;7.40;99.90
20594;DHT22;10455;48.732;10.266;2023-02-20T01:08:32;7.50;99.90
20594;DHT22;10455;48.732;10.266;2023-02-20T01:13:35;7.40;99.90
20594;DHT22;10455;48.732;10.266;2023-02-20T01:18:37;7.20;99.90
20594;DHT22;10455;48.732;10.266;2023-02-20T01:23:39;7.20;99.90
20594;DHT22;10455;48.732;10.266;2023-02-20T01:28:44;7.30;99.90
20594;DHT22;10455;48.732;10.266;2023-02-20T01:33:47;7.30;99.90
20594;DHT22;10455;48.732;10.266;2023-02-20T01:38:48;7.20;99.90
20594;DHT22;10455;48.732;10.266;2023-02-20T01:43:52;7.20;99.90
20594;DHT22;10455;48.732;10.266;2023-02-20T01:48:57;7.10;99.90
20594;DHT22;10455;48.732;10.266;2023-02-20T01:54:00;7.20;99.90
20594;DHT22;10455;48.732;10.266;2023-02-20T01:59:05;7.00;99.90
20594;DHT22;10455;48.732;10.266;2023-02-20T02:04:10;6.80;99.90
20594;DHT22;10455;48.732;10.266;2023-02-20T02:09:21;6.60;99.90
20594;DHT22;10455;48.732;10.266;2023-02-20T02:14:26;6.40;99.90
20594;DHT22;10455;48.732;10.266;2023-02-20T02:25:24;6.60;99.90
20594;DHT22;10455;48.732;10.266;2023-02-20T02:30:59;6.80;99.90
20594;DHT22;10455;48.732;10.266;2023-02-20T02:41:55;6.90;99.90
20594;DHT22;10455;48.732;10.266;2023-02-20T02:47:01;6.80;99.90
20594;DHT22;10455;48.732;10.266;2023-02-20T02:52:04;6.70;99.90
20594;DHT22;10455;48.732;10.266;2023-02-20T02:57:24;6.40;99.90
20594;DHT22;10455;48.732;10.266;2023-02-20T03:02:28;6.10;99.90
20594;DHT22;10455;48.732;10.266;2023-02-20T03:07:34;5.90;99.90
20594;DHT22;10455;48.732;10.266;2023-02-20T03:12:41;5.80;99.90
20594;DHT22;10455;48.732;10.266;2023-02-20T03:17:52;5.70;99.90
20594;DHT22;10455;48.732;10.266;2023-02-20T03:22:58;5.50;99.90
20594;DHT22;10455;48.732;10.266;2023-02-20T03:28:05;5.50;99.90
20594;DHT22;10455;48.732;10.266;2023-02-20T03:33:12;5.50;99.90
20594;DHT22;10455;48.732;10.266;2023-02-20T03:38:36;5.70;99.90
20594;DHT22;10455;48.732;10.266;2023-02-20T03:43:59;5.60;99.90
20594;DHT22;10455;48.732;10.266;2023-02-20T03:49:09;5.60;99.90
20594;DHT22;10455;48.732;10.266;2023-02-20T03:54:12;5.50;99.90
20594;DHT22;10455;48.732;10.266;2023-02-20T03:59:18;5.50;99.90
20594;DHT22;10455;48.732;10.266;2023-02-20T04:04:27;5.80;99.90
20594;DHT22;10455;48.732;10.266;2023-02-20T04:09:32;5.80;99.90
20594;DHT22;10455;48.732;10.266;2023-02-20T04:14:37;5.60;99.90
20594;DHT22;10455;48.732;10.266;2023-02-20T04:19:39;5.50;99.90
20594;DHT22;10455;48.732;10.266;2023-02-20T04:24:45;5.50;99.90
20594;DHT22;10455;48.732;10.266;2023-02-20T04:29:49;5.50;99.90
20594;DHT22;10455;48.732;10.266;2023-02-20T04:34:51;5.40;99.90
20594;DHT22;10455;48.732;10.266;2023-02-20T04:39:53;5.50;99.90
20594;DHT22;10455;48.732;10.266;2023-02-20T04:44:57;5.50;99.90
20594;DHT22;10455;48.732;10.266;2023-02-20T04:49:58;5.40;99.90
20594;DHT22;10455;48.732;10.266;2023-02-20T04:55:00;5.30;99.90
20594;DHT22;10455;48.732;10.266;2023-02-20T05:00:05;5.30;99.90
20594;DHT22;10455;48.732;10.266;2023-02-20T05:05:16;5.30;99.90
20594;DHT22;10455;48.732;10.266;2023-02-20T05:10:20;5.30;99.90
20594;DHT22;10455;48.732;10.266;2023-02-20T05:15:25;5.30;99.90
20594;DHT22;10455;48.732;10.266;2023-02-20T05:20:27;5.30;99.90
20594;DHT22;10455;48.732;10.266;2023-02-20T05:25:43;5.20;99.90
20594;DHT22;10455;48.732;10.266;2023-02-20T05:30:46;5.10;99.90
20594;DHT22;10455;48.732;10.266;2023-02-20T05:35:48;5.00;99.90
20594;DHT22;10455;48.732;10.266;2023-02-20T05:40:50;5.00;99.90
20594;DHT22;10455;48.732;10.266;2023-02-20T05:45:53;5.10;99.90
20594;DHT22;10455;48.732;10.266;2023-02-20T05:50:55;5.00;99.90
20594;DHT22;10455;48.732;10.266;2023-02-20T05:55:57;5.00;99.90
20594;DHT22;10455;48.732;10.266;2023-02-20T06:01:00;5.00;99.90
20594;DHT22;10455;48.732;10.266;2023-02-20T06:06:03;4.90;99.90
20594;DHT22;10455;48.732;10.266;2023-02-20T06:11:05;4.90;99.90
20594;DHT22;10455;48.732;10.266;2023-02-20T06:16:10;5.00;99.90
20594;DHT22;10455;48.732;10.266;2023-02-20T06:21:13;5.00;99.90
20594;DHT22;10455;48.732;10.266;2023-02-20T06:26:15;5.10;99.90
20594;DHT22;10455;48.732;10.266;2023-02-20T06:31:22;5.10;99.90
20594;DHT22;10455;48.732;10.266;2023-02-20T06:36:27;5.20;99.90
20594;DHT22;10455;48.732;10.266;2023-02-20T06:41:29;5.30;99.90
20594;DHT22;10455;48.732;10.266;2023-02-20T06:46:33;5.40;99.90
20594;DHT22;10455;48.732;10.266;2023-02-20T06:51:35;5.50;99.90
20594;DHT22;10455;48.732;10.266;2023-02-20T06:56:37;5.50;99.90
20594;DHT22;10455;48.732;10.266;2023-02-20T07:01:41;5.60;99.90
20594;DHT22;10455;48.732;10.266;2023-02-20T07:06:43;5.70;99.90
20594;DHT22;10455;48.732;10.266;2023-02-20T07:11:46;6.50;99.90
20594;DHT22;10455;48.732;10.266;2023-02-20T07:16:51;8.00;99.90
20594;DHT22;10455;48.732;10.266;2023-02-20T07:21:53;7.00;99.90
20594;DHT22;10455;48.732;10.266;2023-02-20T07:26:55;6.40;99.90
20594;DHT22;10455;48.732;10.266;2023-02-20T07:31:58;6.30;99.90
20594;DHT22;10455;48.732;10.266;2023-02-20T07:37:00;6.10;99.90
20594;DHT22;10455;48.732;10.266;2023-02-20T07:42:02;6.30;99.90
20594;DHT22;10455;48.732;10.266;2023-02-20T07:47:05;6.40;99.90
20594;DHT22;10455;48.732;10.266;2023-02-20T07:52:07;6.40;99.90
20594;DHT22;10455;48.732;10.266;2023-02-20T07:57:09;6.60;99.90
20594;DHT22;10455;48.732;10.266;2023-02-20T08:02:12;6.90;99.90
20594;DHT22;10455;48.732;10.266;2023-02-20T08:07:14;7.30;99.90
20594;DHT22;10455;48.732;10.266;2023-02-20T08:12:16;7.60;99.90
20594;DHT22;10455;48.732;10.266;2023-02-20T08:17:19;7.90;99.90
20594;DHT22;10455;48.732;10.266;2023-02-20T08:22:21;8.10;99.90
20594;DHT22;10455;48.732;10.266;2023-02-20T08:27:23;8.10;99.90
20594;DHT22;10455;48.732;10.266;2023-02-20T08:32:26;8.60;99.90
20594;DHT22;10455;48.732;10.266;2023-02-20T08:37:28;9.10;99.90
20594;DHT22;10455;48.732;10.266;2023-02-20T08:42:30;9.30;99.90
20594;DHT22;10455;48.732;10.266;2023-02-20T08:47:34;9.70;99.90
20594;DHT22;10455;48.732;10.266;2023-02-20T08:52:36;10.70;99.90
20594;DHT22;10455;48.732;10.266;2023-02-20T08:57:41;11.80;99.90
20594;DHT22;10455;48.732;10.266;2023-02-20T09:02:45;12.30;99.90
20594;DHT22;10455;48.732;10.266;2023-02-20T09:07:47;11.60;99.90
20594;DHT22;10455;48.732;10.266;2023-02-20T09:12:49;11.20;99.90
20594;DHT22;10455;48.732;10.266;2023-02-20T09:17:53;11.30;99.90
20594;DHT22;10455;48.732;10.266;2023-02-20T09:22:57;13.20;99.90
20594;DHT22;10455;48.732;10.266;2023-02-20T09:27:59;16.90;99.90
20594;DHT22;10455;48.732;10.266;2023-02-20T09:33:03;18.50;99.90
20594;DHT22;10455;48.732;10.266;2023-02-20T09:38:04;18.40;99.90
20594;DHT22;10455;48.732;10.266;2023-02-20T09:43:19;17.40;99.70
20594;DHT22;10455;48.732;10.266;2023-02-20T09:48:44;16.90;99.90
20594;DHT22;10455;48.732;10.266;2023-02-20T09:53:53;18.10;98.90
20594;DHT22;10455;48.732;10.266;2023-02-20T09:58:59;17.20;99.90
20594;DHT22;10455;48.732;10.266;2023-02-20T10:04:08;18.10;99.70
20594;DHT22;10455;48.732;10.266;2023-02-20T10:09:14;19.00;97.50
20594;DHT22;10455;48.732;10.266;2023-02-20T10:14:33;20.90;95.40
20594;DHT22;10455;48.732;10.266;2023-02-20T10:19:46;20.10;94.50
20594;DHT22;10455;48.732;10.266;2023-02-20T10:25:04;19.90;93.40
20594;DHT22;10455;48.732;10.266;2023-02-20T10:30:10;18.30;95.00
20594;DHT22;10455;48.732;10.266;2023-02-20T10:35:16;16.90;98.00
20594;DHT22;10455;48.732;10.266;2023-02-20T10:40:24;18.10;97.10
20594;DHT22;10455;48.732;10.266;2023-02-20T10:45:38;19.40;94.80
20594;DHT22;10455;48.732;10.266;2023-02-20T10:50:48;20.00;93.90
20594;DHT22;10455;48.732;10.266;2023-02-20T10:55:55;19.40;93.70
20594;DHT22;10455;48.732;10.266;2023-02-20T11:01:02;19.60;94.50
20594;DHT22;10455;48.732;10.266;2023-02-20T11:06:08;19.40;93.60
20594;DHT22;10455;48.732;10.266;2023-02-20T11:11:21;17.90;95.20
20594;DHT22;10455;48.732;10.266;2023-02-20T11:16:27;17.50;96.90
20594;DHT22;10455;48.732;10.266;2023-02-20T11:21:39;18.00;95.80
20594;DHT22;10455;48.732;10.266;2023-02-20T11:26:42;17.30;96.00
20594;DHT22;10455;48.732;10.266;2023-02-20T11:31:44;17.90;95.40
20594;DHT22;10455;48.732;10.266;2023-02-20T11:36:51;18.20;94.30
20594;DHT22;10455;48.732;10.266;2023-02-20T11:42:06;17.90;94.50
20594;DHT22;10455;48.732;10.266;2023-02-20T11:47:25;17.90;94.40
20594;DHT22;10455;48.732;10.266;2023-02-20T11:52:29;18.00;94.60
20594;DHT22;10455;48.732;10.266;2023-02-20T11:57:31;18.10;93.30
20594;DHT22;10455;48.732;10.266;2023-02-20T12:02:34;18.10;93.60
20594;DHT22;10455;48.732;10.266;2023-02-20T12:07:41;17.70;94.10
20594;DHT22;10455;48.732;10.266;2023-02-20T12:12:43;17.60;95.70
20594;DHT22;10455;48.732;10.266;2023-02-20T12:18:02;18.40;93.50
20594;DHT22;10455;48.732;10.266;2023-02-20T12:23:18;17.70;94.30
20594;DHT22;10455;48.732;10.266;2023-02-20T12:28:26;17.20;94.80
20594;DHT22;10455;48.732;10.266;2023-02-20T12:33:52;17.40;94.60
20594;DHT22;10455;48.732;10.266;2023-02-20T12:39:02;17.30;93.80
20594;DHT22;10455;48.732;10.266;2023-02-20T12:44:20;16.80;95.10
20594;DHT22;10455;48.732;10.266;2023-02-20T12:49:42;17.30;95.30
20594;DHT22;10455;48.732;10.266;2023-02-20T12:54:56;18.40;92.20
20594;DHT22;10455;48.732;10.266;2023-02-20T13:00:03;17.80;93.40
20594;DHT22;10455;48.732;10.266;2023-02-20T13:05:10;18.00;92.20
20594;DHT22;10455;48.732;10.266;2023-02-20T13:10:17;17.90;91.40
20594;DHT22;10455;48.732;10.266;2023-02-20T13:15:31;17.70;93.20
20594;DHT22;10455;48.732;10.266;2023-02-20T13:20:38;18.20;93.00
20594;DHT22;10455;48.732;10.266;2023-02-20T13:25:47;19.10;91.70
20594;DHT22;10455;48.732;10.266;2023-02-20T13:31:14;19.10;90.60
20594;DHT22;10455;48.732;10.266;2023-02-20T13:36:37;17.20;92.00
20594;DHT22;10455;48.732;10.266;2023-02-20T13:47:45;16.60;93.50
20594;DHT22;10455;48.732;10.266;2023-02-20T13:52:47;16.50;93.30
20594;DHT22;10455;48.732;10.266;2023-02-20T13:58:00;17.40;92.70
20594;DHT22;10455;48.732;10.266;2023-02-20T14:03:11;17.50;92.80
20594;DHT22;10455;48.732;10.266;2023-02-20T14:08:16;17.40;91.90
20594;DHT22;10455;48.732;10.266;2023-02-20T14:13:20;17.50;91.00
20594;DHT22;10455;48.732;10.266;2023-02-20T14:18:26;17.10;91.00
20594;DHT22;10455;48.732;10.266;2023-02-20T14:23:29;17.20;91.60
20594;DHT22;10455;48.732;10.266;2023-02-20T14:28:33;17.10;90.90
20594;DHT22;10455;48.732;10.266;2023-02-20T14:33:37;17.50;91.70
20594;DHT22;10455;48.732;10.266;2023-02-20T14:38:48;18.70;87.70
20594;DHT22;10455;48.732;10.266;2023-02-20T14:43:54;17.50;88.40
20594;DHT22;10455;48.732;10.266;2023-02-20T14:49:05;17.30;89.30
20594;DHT22;10455;48.732;10.266;2023-02-20T14:54:18;17.00;91.80
20594;DHT22;10455;48.732;10.266;2023-02-20T14:59:24;17.50;90.00
20594;DHT22;10455;48.732;10.266;2023-02-20T15:04:28;18.30;88.50
20594;DHT22;10455;48.732;10.266;2023-02-20T15:09:37;17.90;89.90
20594;DHT22;10455;48.732;10.266;2023-02-20T15:14:42;17.60;89.00
20594;DHT22;10455;48.732;10.266;2023-02-20T15:19:45;16.70;89.20
20594;DHT22;10455;48.732;10.266;2023-02-20T15:24:47;16.10;90.30
20594;DHT22;10455;48.732;10.266;2023-02-20T15:30:08;15.30;91.50
20594;DHT22;10455;48.732;10.266;2023-02-20T15:35:17;14.40;92.60
20594;DHT22;10455;48.732;10.266;2023-02-20T15:40:23;13.70;93.80
20594;DHT22;10455;48.732;10.266;2023-02-20T15:45:27;13.40;93.90
20594;DHT22;10455;48.732;10.266;2023-02-20T15:50:30;13.40;94.50
20594;DHT22;10455;48.732;10.266;2023-02-20T15:55:33;13.20;94.90
20594;DHT22;10455;48.732;10.266;2023-02-20T16:00:35;12.80;96.10
20594;DHT22;10455;48.732;10.266;2023-02-20T16:05:39;12.70;96.50
20594;DHT22;10455;48.732;10.266;2023-02-20T16:10:41;12.50;96.80
20594;DHT22;10455;48.732;10.266;2023-02-20T16:15:42;12.40;97.00
20594;DHT22;10455;48.732;10.266;2023-02-20T16:20:46;12.20;97.70
20594;DHT22;10455;48.732;10.266;2023-02-20T16:25:48;11.80;98.10
20594;DHT22;10455;48.732;10.266;2023-02-20T16:30:52;11.70;98.20
20594;DHT22;10455;48.732;10.266;2023-02-20T16:35:56;11.50;99.20
20594;DHT22;10455;48.732;10.266;2023-02-20T16:40:58;11.20;99.30
20594;DHT22;10455;48.732;10.266;2023-02-20T16:46:03;11.10;99.70
20594;DHT22;10455;48.732;10.266;2023-02-20T16:51:09;11.00;99.90
20594;DHT22;10455;48.732;10.266;2023-02-20T16:56:13;10.80;99.90
20594;DHT22;10455;48.732;10.266;2023-02-20T17:01:15;10.50;99.90
20594;DHT22;10455;48.732;10.266;2023-02-20T17:06:19;10.40;99.90
20594;DHT22;10455;48.732;10.266;2023-02-20T17:11:23;10.30;99.90
20594;DHT22;10455;48.732;10.266;2023-02-20T17:16:24;10.00;99.90
20594;DHT22;10455;48.732;10.266;2023-02-20T17:21:28;9.80;99.90
20594;DHT22;10455;48.732;10.266;2023-02-20T17:26:33;9.60;99.90
20594;DHT22;10455;48.732;10.266;2023-02-20T17:31:35;9.60;99.90
20594;DHT22;10455;48.732;10.266;2023-02-20T17:36:41;9.50;99.90
20594;DHT22;10455;48.732;10.266;2023-02-20T17:41:48;9.30;99.90
20594;DHT22;10455;48.732;10.266;2023-02-20T17:46:50;9.00;99.90
20594;DHT22;10455;48.732;10.266;2023-02-20T17:51:56;8.50;99.90
20594;DHT22;10455;48.732;10.266;2023-02-20T17:56:59;8.20;99.90
20594;DHT22;10455;48.732;10.266;2023-02-20T18:02:02;7.70;99.90
20594;DHT22;10455;48.732;10.266;2023-02-20T18:07:06;7.30;99.90
20594;DHT22;10455;48.732;10.266;2023-02-20T18:12:08;7.10;99.90
20594;DHT22;10455;48.732;10.266;2023-02-20T18:17:10;7.30;99.90
20594;DHT22;10455;48.732;10.266;2023-02-20T18:22:14;7.60;99.90
20594;DHT22;10455;48.732;10.266;2023-02-20T18:27:16;7.60;99.90
20594;DHT22;10455;48.732;10.266;2023-02-20T18:32:18;7.60;99.90
20594;DHT22;10455;48.732;10.266;2023-02-20T18:37:21;7.60;99.90
20594;DHT22;10455;48.732;10.266;2023-02-20T18:42:23;7.60;99.90
20594;DHT22;10455;48.732;10.266;2023-02-20T18:47:25;7.80;99.90
20594;DHT22;10455;48.732;10.266;2023-02-20T18:52:31;7.90;99.90
20594;DHT22;10455;48.732;10.266;2023-02-20T18:57:33;8.00;99.90
20594;DHT22;10455;48.732;10.266;2023-02-20T19:02:35;7.90;99.90
20594;DHT22;10455;48.732;10.266;2023-02-20T19:07:40;7.50;99.90
20594;DHT22;10455;48.732;10.266;2023-02-20T19:12:43;6.80;99.90
20594;DHT22;10455;48.732;10.266;2023-02-20T19:17:45;6.30;99.90
20594;DHT22;10455;48.732;10.266;2023-02-20T19:22:49;6.20;99.90
20594;DHT22;10455;48.732;10.266;2023-02-20T19:27:51;6.10;99.90
20594;DHT22;10455;48.732;10.266;2023-02-20T19:32:53;5.90;99.90
20594;DHT22;10455;48.732;10.266;2023-02-20T19:37:56;6.10;99.90
20594;DHT22;10455;48.732;10.266;2023-02-20T19:42:58;6.60;99.90
20594;DHT22;10455;48.732;10.266;2023-02-20T19:48:00;7.10;99.90
20594;DHT22;10455;48.732;10.266;2023-02-20T19:53:04;7.50;99.90
20594;DHT22;10455;48.732;10.266;2023-02-20T19:58:07;7.50;99.90
20594;DHT22;10455;48.732;10.266;2023-02-20T20:03:09;7.60;99.90
20594;DHT22;10455;48.732;10.266;2023-02-20T20:08:12;7.70;99.90
20594;DHT22;10455;48.732;10.266;2023-02-20T20:13:14;7.60;99.90
20594;DHT22;10455;48.732;10.266;2023-02-20T20:18:17;7.50;99.90
20594;DHT22;10455;48.732;10.266;2023-02-20T20:23:21;7.50;99.90
20594;DHT22;10455;48.732;10.266;2023-02-20T20:28:23;7.50;99.90
20594;DHT22;10455;48.732;10.266;2023-02-20T20:33:25;7.60;99.90
20594;DHT22;10455;48.732;10.266;2023-02-20T20:38:28;7.80;99.90
20594;DHT22;10455;48.732;10.266;2023-02-20T20:43:30;7.80;99.90
20594;DHT22;10455;48.732;10.266;2023-02-20T20:48:32;7.60;99.90
20594;DHT22;10455;48.732;10.266;2023-02-20T20:53:35;7.60;99.90
20594;DHT22;10455;48.732;10.266;2023-02-20T20:58:37;7.50;99.90
20594;DHT22;10455;48.732;10.266;2023-02-20T21:03:39;7.40;99.90
20594;DHT22;10455;48.732;10.266;2023-02-20T21:08:43;7.20;99.90
20594;DHT22;10455;48.732;10.266;2023-02-20T21:13:45;7.20;99.90
20594;DHT22;10455;48.732;10.266;2023-02-20T21:18:47;7.20;99.90
20594;DHT22;10455;48.732;10.266;2023-02-20T21:23:51;7.30;99.90
20594;DHT22;10455;48.732;10.266;2023-02-20T21:28:53;7.10;99.90
20594;DHT22;10455;48.732;10.266;2023-02-20T21:33:55;7.00;99.90
20594;DHT22;10455;48.732;10.266;2023-02-20T21:38:58;7.20;99.90
20594;DHT22;10455;48.732;10.266;2023-02-20T21:44:00;7.10;99.90
20594;DHT22;10455;48.732;10.266;2023-02-20T21:49:20;7.00;99.90
20594;DHT22;10455;48.732;10.266;2023-02-20T21:54:25;6.80;99.90
20594;DHT22;10455;48.732;10.266;2023-02-20T21:59:27;6.70;99.90
20594;DHT22;10455;48.732;10.266;2023-02-20T22:04:28;6.70;99.90
20594;DHT22;10455;48.732;10.266;2023-02-20T22:09:31;6.90;99.90
20594;DHT22;10455;48.732;10.266;2023-02-20T22:14:50;7.10;99.90
20594;DHT22;10455;48.732;10.266;2023-02-20T22:20:10;6.80;99.90
20594;DHT22;10455;48.732;10.266;2023-02-20T22:25:31;6.40;99.90
20594;DHT22;10455;48.732;10.266;2023-02-20T22:30:51;6.30;99.90
20594;DHT22;10455;48.732;10.266;2023-02-20T22:36:10;6.10;99.90
20594;DHT22;10455;48.732;10.266;2023-02-20T22:41:30;6.10;99.90
20594;DHT22;10455;48.732;10.266;2023-02-20T22:46:49;6.00;99.90
20594;DHT22;10455;48.732;10.266;2023-02-20T22:52:09;5.90;99.90
20594;DHT22;10455;48.732;10.266;2023-02-20T22:57:30;5.90;99.90
20594;DHT22;10455;48.732;10.266;2023-02-20T23:02:49;5.80;99.90
20594;DHT22;10455;48.732;10.266;2023-02-20T23:08:10;5.70;99.90
20594;DHT22;10455;48.732;10.266;2023-02-20T23:13:30;5.60;99.90
20594;DHT22;10455;48.732;10.266;2023-02-20T23:18:50;5.50;99.90
20594;DHT22;10455;48.732;10.266;2023-02-20T23:24:09;5.70;99.90
20594;DHT22;10455;48.732;10.266;2023-02-20T23:29:30;6.00;99.90
20594;DHT22;10455;48.732;10.266;2023-02-20T23:34:49;6.00;99.90
20594;DHT22;10455;48.732;10.266;2023-02-20T23:40:08;5.90;99.90
20594;DHT22;10455;48.732;10.266;2023-02-20T23:45:30;6.00;99.90
20594;DHT22;10455;48.732;10.266;2023-02-20T23:50:49;6.10;99.90
20594;DHT22;10455;48.732;10.266;2023-02-20T23:56:08;6.40;99.90
